createdAt,value
2019-04-16T00:02:32.913Z,14.18
2019-04-16T00:05:19.670Z,14.28
2019-04-16T00:07:58.335Z,14.15
2019-04-16T00:10:50.877Z,14.10
2019-04-16T00:13:29.975Z,13.35
2019-04-16T00:15:58.167Z,13.70
2019-04-16T00:18:25.399Z,13.70
2019-04-16T00:21:10.028Z,14.15
2019-04-16T00:23:51.221Z,13.65
2019-04-16T00:26:18.529Z,14.15
2019-04-16T00:28:45.693Z,14.20
2019-04-16T00:31:12.963Z,14.78
2019-04-16T00:33:42.823Z,13.60
2019-04-16T00:36:09.335Z,14.00
2019-04-16T00:38:41.031Z,15.03
2019-04-16T00:41:05.700Z,14.47
2019-04-16T00:43:32.932Z,14.47
2019-04-16T00:46:00.172Z,14.30
2019-04-16T00:48:27.424Z,15.18
2019-04-16T00:50:54.657Z,13.65
2019-04-16T00:53:21.812Z,14.68
2019-04-16T00:55:49.340Z,14.15
2019-04-16T00:58:19.524Z,15.40
2019-04-16T01:00:45.835Z,14.65
2019-04-16T01:03:13.090Z,14.35
2019-04-16T01:05:40.343Z,13.93
2019-04-16T01:08:07.618Z,14.50
2019-04-16T01:10:34.836Z,15.08
2019-04-16T01:13:02.071Z,15.10
2019-04-16T01:15:31.904Z,15.23
2019-04-16T01:17:58.567Z,15.23
2019-04-16T01:20:25.792Z,15.15
2019-04-16T01:22:53.048Z,16.05
2019-04-16T01:25:23.159Z,14.73
2019-04-16T01:27:54.465Z,14.47
2019-04-16T01:30:36.334Z,14.73
2019-04-16T01:33:14.456Z,14.40
2019-04-16T01:35:51.727Z,14.95
2019-04-16T01:38:27.912Z,14.93
2019-04-16T01:41:00.355Z,15.25
2019-04-16T01:43:27.556Z,15.78
2019-04-16T01:45:54.783Z,15.20
2019-04-16T01:48:22.075Z,14.63
2019-04-16T01:50:49.124Z,15.78
2019-04-16T01:53:18.309Z,15.58
2019-04-16T01:55:45.254Z,15.35
2019-04-16T01:58:12.217Z,15.65
2019-04-16T02:00:39.984Z,16.05
2019-04-16T02:03:07.004Z,15.05
2019-04-16T02:05:34.248Z,16.17
2019-04-16T02:08:01.492Z,16.50
2019-04-16T02:10:28.740Z,15.83
2019-04-16T02:12:55.950Z,16.57
2019-04-16T02:15:23.187Z,15.25
2019-04-16T02:17:50.427Z,16.00
2019-04-16T02:20:17.651Z,15.88
2019-04-16T02:22:45.183Z,16.60
2019-04-16T02:25:13.496Z,15.25
2019-04-16T02:27:40.724Z,17.30
2019-04-16T02:30:07.999Z,16.93
2019-04-16T02:32:35.237Z,16.90
2019-04-16T02:35:02.727Z,16.75
2019-04-16T02:37:35.346Z,16.82
2019-04-16T02:39:59.096Z,16.07
2019-04-16T02:42:30.804Z,15.58
2019-04-16T02:44:55.547Z,15.78
2019-04-16T02:47:22.811Z,15.78
2019-04-16T02:49:56.378Z,15.85
2019-04-16T02:52:38.776Z,16.87
2019-04-16T02:55:17.998Z,17.02
2019-04-16T02:57:59.505Z,16.90
2019-04-16T03:00:42.830Z,16.55
2019-04-16T03:03:13.971Z,15.45
2019-04-16T03:05:44.088Z,16.73
2019-04-16T03:08:11.311Z,17.30
2019-04-16T03:10:38.568Z,16.97
2019-04-16T03:13:05.776Z,15.98
2019-04-16T03:16:06.240Z,16.60
2019-04-16T03:18:41.047Z,17.02
2019-04-16T03:21:08.364Z,16.90
2019-04-16T03:23:37.498Z,16.20
2019-04-16T03:26:04.807Z,16.95
2019-04-16T03:28:32.108Z,15.60
2019-04-16T03:30:59.359Z,16.35
2019-04-16T03:33:26.632Z,17.27
2019-04-16T03:35:57.618Z,16.05
2019-04-16T03:38:23.128Z,18.25
2019-04-16T03:40:50.420Z,17.48
2019-04-16T03:43:17.713Z,17.05
2019-04-16T03:45:45.021Z,16.20
2019-04-16T03:48:12.158Z,16.23
2019-04-16T03:50:39.539Z,17.35
2019-04-16T03:53:06.762Z,16.10
2019-04-16T03:55:34.070Z,17.27
2019-04-16T03:58:05.387Z,17.02
2019-04-16T04:00:30.560Z,17.37
2019-04-16T04:02:57.819Z,16.50
2019-04-16T04:05:25.100Z,16.27
2019-04-16T04:07:55.054Z,17.85
2019-04-16T04:10:30.510Z,16.55
2019-04-16T04:12:50.469Z,16.95
2019-04-16T04:15:17.332Z,17.87
2019-04-16T04:17:44.813Z,17.77
2019-04-16T04:20:14.648Z,16.55
2019-04-16T04:22:41.267Z,16.65
2019-04-16T04:25:08.149Z,16.25
2019-04-16T04:27:35.076Z,15.20
2019-04-16T04:30:02.181Z,16.93
2019-04-16T04:32:29.323Z,15.00
2019-04-16T04:34:56.239Z,15.60
2019-04-16T04:37:23.591Z,16.23
2019-04-16T04:39:50.829Z,16.05
2019-04-16T04:42:19.394Z,16.27
2019-04-16T04:44:47.247Z,16.82
2019-04-16T04:47:15.548Z,16.37
2019-04-16T04:49:43.708Z,17.12
2019-04-16T04:52:13.636Z,16.40
2019-04-16T04:54:40.188Z,16.25
2019-04-16T04:57:07.440Z,16.57
2019-04-16T04:59:36.731Z,16.02
2019-04-16T05:02:03.832Z,16.48
2019-04-16T05:04:46.190Z,17.40
2019-04-16T05:07:13.738Z,15.48
2019-04-16T05:09:41.012Z,15.95
2019-04-16T05:12:08.610Z,16.80
2019-04-16T05:14:39.120Z,15.35
2019-04-16T05:17:07.466Z,16.05
2019-04-16T05:19:34.991Z,17.27
2019-04-16T05:22:02.298Z,16.67
2019-04-16T05:24:30.021Z,17.55
2019-04-16T05:26:57.360Z,15.68
2019-04-16T05:29:24.520Z,16.42
2019-04-16T05:31:54.567Z,15.80
2019-04-16T05:34:21.047Z,15.40
2019-04-16T05:36:48.335Z,16.17
2019-04-16T05:39:15.568Z,15.45
2019-04-16T05:41:42.785Z,16.27
2019-04-16T05:44:10.041Z,16.12
2019-04-16T05:46:38.374Z,16.37
2019-04-16T05:49:06.036Z,16.00
2019-04-16T05:51:33.346Z,15.45
2019-04-16T05:54:08.434Z,16.20
2019-04-16T05:56:43.865Z,14.90
2019-04-16T05:59:11.139Z,14.07
2019-04-16T06:02:01.667Z,14.23
2019-04-16T06:04:28.903Z,15.00
2019-04-16T06:06:56.159Z,16.15
2019-04-16T06:09:23.995Z,17.37
2019-04-16T06:11:51.248Z,14.47
2019-04-16T06:14:37.999Z,15.00
2019-04-16T06:17:19.847Z,15.05
2019-04-16T06:20:06.578Z,14.85
2019-04-16T06:22:53.327Z,15.35
2019-04-16T06:25:41.290Z,15.88
2019-04-16T06:28:47.259Z,14.80
2019-04-16T06:31:28.244Z,14.85
2019-04-16T06:34:10.012Z,16.48
2019-04-16T06:36:44.631Z,16.48
2019-04-16T06:39:21.500Z,16.50
2019-04-16T06:42:08.268Z,17.27
2019-04-16T06:44:41.809Z,17.05
2019-04-16T06:47:28.544Z,16.07
2019-04-16T06:50:30.711Z,16.37
2019-04-16T06:53:25.233Z,16.77
2019-04-16T06:56:13.134Z,16.10
2019-04-16T06:58:51.408Z,17.30
2019-04-16T07:01:41.514Z,17.40
2019-04-16T07:04:33.408Z,16.95
2019-04-16T07:07:21.574Z,16.70
2019-04-16T07:10:16.268Z,17.57
2019-04-16T07:12:43.560Z,16.48
2019-04-16T07:15:10.808Z,17.40
2019-04-16T07:17:40.469Z,18.00
2019-04-16T07:20:13.033Z,16.97
2019-04-16T07:22:39.804Z,17.80
2019-04-16T07:25:07.174Z,17.90
2019-04-16T07:27:45.573Z,17.87
2019-04-16T07:30:19.995Z,17.12
2019-04-16T07:33:08.333Z,17.77
2019-04-16T07:35:55.085Z,17.45
2019-04-16T07:38:35.124Z,16.75
2019-04-16T07:41:17.790Z,18.23
2019-04-16T07:44:08.114Z,18.48
2019-04-16T07:46:50.384Z,18.90
2019-04-16T07:49:40.226Z,18.77
2019-04-16T07:52:45.179Z,19.52
2019-04-16T07:55:30.613Z,19.85
2019-04-16T07:57:57.895Z,18.20
2019-04-16T08:00:25.227Z,19.32
2019-04-16T08:02:53.637Z,19.05
2019-04-16T08:05:27.617Z,18.95
2019-04-16T08:07:53.808Z,18.82
2019-04-16T08:10:21.290Z,18.50
2019-04-16T08:13:06.351Z,18.67
2019-04-16T08:15:33.674Z,18.07
2019-04-16T08:18:00.965Z,18.30
2019-04-16T08:20:28.239Z,19.37
2019-04-16T08:22:59.312Z,18.67
2019-04-16T08:27:55.046Z,17.80
2019-04-16T08:30:22.340Z,17.77
2019-04-16T08:32:49.753Z,19.17
2019-04-16T08:35:17.548Z,17.25
2019-04-16T08:37:49.147Z,18.57
2019-04-16T08:40:14.038Z,19.20
2019-04-16T08:42:44.829Z,19.05
2019-04-16T08:45:10.530Z,17.87
2019-04-16T08:47:37.751Z,18.20
2019-04-16T08:50:05.080Z,18.15
2019-04-16T08:52:32.305Z,18.70
2019-04-16T08:54:59.615Z,18.95
2019-04-16T08:57:31.788Z,19.07
2019-04-16T08:59:56.378Z,18.42
2019-04-16T09:02:27.093Z,18.82
2019-04-16T09:04:52.979Z,19.45
2019-04-16T09:07:38.290Z,19.62
2019-04-16T09:10:17.155Z,19.32
2019-04-16T09:12:41.236Z,19.85
2019-04-16T09:15:05.437Z,19.40
2019-04-16T09:17:43.559Z,18.42
2019-04-16T09:20:12.899Z,20.08
2019-04-16T09:22:48.826Z,19.07
2019-04-16T09:25:27.443Z,19.73
2019-04-16T09:28:03.105Z,19.62
2019-04-16T09:30:49.823Z,20.68
2019-04-16T09:33:25.460Z,19.42
2019-04-16T09:36:18.433Z,19.30
2019-04-16T09:38:51.387Z,21.12
2019-04-16T09:41:37.117Z,21.62
2019-04-16T09:44:04.347Z,20.70
2019-04-16T09:46:50.444Z,21.25
2019-04-16T09:49:00.939Z,20.72
2019-04-16T09:51:29.923Z,20.17
2019-04-16T09:53:57.029Z,20.97
2019-04-16T09:56:29.078Z,20.30
2019-04-16T09:58:59.912Z,20.55
2019-04-16T10:01:39.303Z,20.55
2019-04-16T10:04:07.684Z,20.82
2019-04-16T10:06:34.887Z,20.45
2019-04-16T10:09:02.142Z,19.57
2019-04-16T10:11:29.534Z,21.23
2019-04-16T10:13:56.859Z,20.75
2019-04-16T10:16:25.905Z,20.90
2019-04-16T10:18:53.297Z,20.97
2019-04-16T10:21:20.635Z,20.57
2019-04-16T10:24:06.106Z,21.42
2019-04-16T10:26:33.474Z,21.82
2019-04-16T10:29:05.824Z,20.68
2019-04-16T10:31:32.054Z,21.62
2019-04-16T10:33:59.404Z,21.73
2019-04-16T10:36:26.655Z,20.82
2019-04-16T10:39:04.783Z,19.00
2019-04-16T10:41:35.661Z,20.05
2019-04-16T10:44:37.138Z,19.62
2019-04-16T10:47:25.461Z,19.62
2019-04-16T10:50:10.451Z,19.45
2019-04-16T10:53:08.965Z,20.65
2019-04-16T10:55:58.578Z,18.42
2019-04-16T10:58:44.118Z,19.30
2019-04-16T11:01:20.545Z,21.00
2019-04-16T11:04:13.339Z,20.95
2019-04-16T11:06:42.490Z,19.82
2019-04-16T11:09:09.855Z,20.40
2019-04-16T11:11:37.418Z,19.95
2019-04-16T11:14:04.659Z,20.45
2019-04-16T11:16:31.908Z,20.65
2019-04-16T11:18:59.268Z,20.02
2019-04-16T11:21:26.561Z,20.50
2019-04-16T11:23:53.895Z,20.48
2019-04-16T11:26:21.153Z,20.25
2019-04-16T11:28:48.395Z,21.00
2019-04-16T11:31:18.035Z,20.12
2019-04-16T11:33:45.380Z,19.37
2019-04-16T11:36:19.559Z,19.98
2019-04-16T11:38:41.848Z,21.37
2019-04-16T11:41:09.100Z,21.85
2019-04-16T11:43:36.394Z,21.17
2019-04-16T11:46:03.562Z,22.05
2019-04-16T11:48:30.597Z,20.00
2019-04-16T11:50:58.124Z,21.05
2019-04-16T11:53:25.345Z,20.70
2019-04-16T11:55:52.963Z,20.30
2019-04-16T11:58:38.336Z,20.57
2019-04-16T12:01:22.969Z,21.12
2019-04-16T12:03:56.117Z,21.52
2019-04-16T12:06:43.444Z,21.02
2019-04-16T12:09:33.018Z,21.95
2019-04-16T12:12:08.446Z,23.67
2019-04-16T12:14:55.328Z,21.65
2019-04-16T12:17:42.243Z,22.10
2019-04-16T12:20:42.987Z,21.48
2019-04-16T12:23:28.016Z,20.68
2019-04-16T12:26:09.780Z,21.42
2019-04-16T12:28:57.586Z,19.35
2019-04-16T12:31:39.182Z,19.65
2019-04-16T12:34:31.666Z,19.75
2019-04-16T12:37:24.401Z,19.52
2019-04-16T12:40:03.637Z,19.17
2019-04-16T12:42:42.393Z,20.45
2019-04-16T12:45:41.026Z,20.48
2019-04-16T12:48:46.069Z,19.30
2019-04-16T12:51:19.484Z,20.45
2019-04-16T12:54:04.912Z,20.10
2019-04-16T12:57:03.772Z,19.87
2019-04-16T12:59:40.383Z,18.55
2019-04-16T13:02:36.541Z,20.40
2019-04-16T13:05:23.657Z,18.75
2019-04-16T13:08:08.878Z,20.65
2019-04-16T13:10:43.296Z,19.30
2019-04-16T13:13:21.216Z,18.27
2019-04-16T13:16:16.788Z,18.48
2019-04-16T13:19:02.221Z,18.70
2019-04-16T13:21:32.827Z,18.35
2019-04-16T13:24:18.375Z,17.48
2019-04-16T13:26:49.997Z,16.40
2019-04-16T13:29:20.279Z,17.65
2019-04-16T13:31:47.422Z,17.25
2019-04-16T13:34:18.308Z,16.32
2019-04-16T13:36:43.760Z,16.20
2019-04-16T13:39:24.965Z,16.10
2019-04-16T13:41:52.205Z,17.35
2019-04-16T13:44:20.966Z,14.78
2019-04-16T13:46:48.253Z,16.00
2019-04-16T13:49:24.201Z,14.63
2019-04-16T13:51:49.811Z,14.03
2019-04-16T13:54:27.953Z,14.07
2019-04-16T13:56:58.524Z,14.63
2019-04-16T14:00:03.218Z,13.95
2019-04-16T14:02:44.309Z,15.40
2019-04-16T14:05:11.894Z,14.05
2019-04-16T14:07:39.179Z,14.68
2019-04-16T14:10:06.440Z,15.45
2019-04-16T14:12:41.765Z,14.45
2019-04-16T14:15:06.328Z,15.83
2019-04-16T14:17:35.027Z,14.95
2019-04-16T14:20:01.477Z,15.05
2019-04-16T14:22:28.776Z,15.10
2019-04-16T14:24:56.056Z,14.33
2019-04-16T14:27:23.361Z,14.45
2019-04-16T14:29:50.620Z,13.50
2019-04-16T14:32:17.883Z,13.75
2019-04-16T14:34:55.487Z,15.18
2019-04-16T14:37:22.709Z,13.98
2019-04-16T14:39:55.588Z,13.48
2019-04-16T14:42:23.143Z,13.32
2019-04-16T14:44:54.449Z,11.35
2019-04-16T14:47:21.766Z,11.88
2019-04-16T14:49:50.825Z,11.43
2019-04-16T14:52:18.234Z,9.70
2019-04-16T14:55:05.215Z,9.23
2019-04-16T14:57:32.582Z,8.83
2019-04-16T15:00:18.004Z,8.38
2019-04-16T15:03:07.899Z,8.35
2019-04-16T15:05:41.288Z,8.65
2019-04-16T15:08:29.197Z,8.48
2019-04-16T15:11:31.159Z,7.67
2019-04-16T15:14:13.864Z,7.80
2019-04-16T15:17:12.205Z,7.33
2019-04-16T15:20:00.048Z,7.42
2019-04-16T15:22:45.565Z,6.83
2019-04-16T15:25:22.036Z,7.12
2019-04-16T15:28:10.288Z,6.70
2019-04-16T15:31:03.299Z,6.37
2019-04-16T15:33:52.612Z,5.53
2019-04-16T15:36:22.552Z,5.70
2019-04-16T15:39:12.171Z,5.62
2019-04-16T15:41:54.459Z,5.78
2019-04-16T15:44:44.256Z,6.03
2019-04-16T15:47:25.848Z,5.50
2019-04-16T15:50:18.935Z,5.08
2019-04-16T15:52:54.177Z,5.00
2019-04-16T15:55:38.376Z,4.53
2019-04-16T15:58:25.512Z,4.80
2019-04-16T16:01:14.363Z,4.20
2019-04-16T16:04:01.178Z,4.58
2019-04-16T16:06:30.005Z,4.42
2019-04-16T16:09:07.796Z,4.12
2019-04-16T16:11:39.712Z,4.28
2019-04-16T16:14:07.459Z,4.47
2019-04-16T16:16:41.937Z,4.15
2019-04-16T16:19:04.103Z,4.00
2019-04-16T16:21:31.465Z,3.70
2019-04-16T16:23:58.804Z,4.00
2019-04-16T16:26:26.121Z,4.03
2019-04-16T16:28:53.549Z,4.25
2019-04-16T16:31:20.806Z,5.42
2019-04-16T16:33:48.240Z,6.65
2019-04-16T16:36:15.566Z,6.53
2019-04-16T16:38:48.331Z,5.05
2019-04-16T16:41:12.216Z,3.95
2019-04-16T16:43:39.698Z,3.72
2019-04-16T16:46:27.976Z,3.50
2019-04-16T16:48:55.235Z,3.30
2019-04-16T16:51:23.183Z,3.42
2019-04-16T16:54:01.096Z,3.67
2019-04-16T16:56:37.644Z,3.80
2019-04-16T16:59:27.215Z,4.42
2019-04-16T17:02:11.729Z,4.97
2019-04-16T17:04:42.680Z,4.12
2019-04-16T17:09:36.750Z,4.03
2019-04-16T17:12:04.064Z,4.05
2019-04-16T17:14:36.529Z,4.05
2019-04-16T17:17:13.140Z,4.70
2019-04-16T17:19:30.169Z,4.55
2019-04-16T17:21:57.477Z,5.80
2019-04-16T17:24:24.829Z,4.75
2019-04-16T17:26:52.383Z,4.83
2019-04-16T17:29:19.782Z,4.95
2019-04-16T17:31:47.978Z,4.97
2019-04-16T17:34:15.269Z,5.10
2019-04-16T17:36:42.561Z,5.30
2019-04-16T17:39:10.823Z,5.65
2019-04-16T17:41:45.978Z,5.90
2019-04-16T17:44:27.377Z,5.65
2019-04-16T17:50:03.684Z,4.83
2019-04-16T17:52:37.157Z,5.42
2019-04-16T17:55:29.807Z,5.15
2019-04-16T17:58:17.246Z,5.00
2019-04-16T18:00:56.484Z,5.62
2019-04-16T18:03:40.313Z,5.50
2019-04-16T18:06:25.897Z,5.20
2019-04-16T18:09:19.808Z,5.15
2019-04-16T18:12:06.604Z,5.75
2019-04-16T18:14:52.035Z,5.12
2019-04-16T18:17:46.835Z,5.65
2019-04-16T18:20:26.522Z,5.37
2019-04-16T18:23:12.043Z,5.28
2019-04-16T18:25:58.945Z,5.92
2019-04-16T18:28:34.492Z,5.65
2019-04-16T18:31:10.541Z,6.30
2019-04-16T18:33:48.821Z,5.72
2019-04-16T18:36:27.701Z,6.62
2019-04-16T18:39:25.687Z,5.67
2019-04-16T18:42:12.480Z,6.70
2019-04-16T18:45:01.790Z,6.55
2019-04-16T18:47:34.924Z,6.45
2019-04-16T18:50:04.895Z,6.37
2019-04-16T18:52:32.304Z,6.40
2019-04-16T18:54:59.573Z,6.30
2019-04-16T18:57:26.856Z,6.47
2019-04-16T18:59:54.175Z,5.83
2019-04-16T19:02:23.374Z,6.72
2019-04-16T19:04:51.130Z,6.42
2019-04-16T19:07:18.447Z,6.97
2019-04-16T19:09:45.755Z,6.45
2019-04-16T19:12:12.999Z,6.65
2019-04-16T19:14:40.278Z,6.62
2019-04-16T19:17:07.550Z,6.33
2019-04-16T19:19:35.225Z,6.75
2019-04-16T19:22:03.074Z,6.80
2019-04-16T19:24:30.488Z,7.15
2019-04-16T19:26:58.093Z,7.55
2019-04-16T19:29:25.414Z,6.30
2019-04-16T19:31:56.751Z,6.95
2019-04-16T19:34:24.574Z,6.45
2019-04-16T19:36:51.829Z,6.45
2019-04-16T19:39:20.215Z,6.40
2019-04-16T19:41:47.531Z,7.20
2019-04-16T19:44:15.012Z,8.03
2019-04-16T19:46:45.972Z,8.68
2019-04-16T19:49:11.816Z,7.80
2019-04-16T19:51:41.306Z,6.92
2019-04-16T19:54:08.411Z,6.62
2019-04-16T19:56:35.744Z,6.67
2019-04-16T19:59:03.012Z,6.67
2019-04-16T20:01:30.337Z,7.10
2019-04-16T20:03:57.700Z,7.37
2019-04-16T20:06:26.268Z,7.90
2019-04-16T20:08:53.780Z,8.88
2019-04-16T20:11:21.740Z,8.50
2019-04-16T20:13:49.107Z,9.63
2019-04-16T20:16:16.571Z,8.73
2019-04-16T20:18:50.838Z,8.83
2019-04-16T20:21:13.152Z,9.68
2019-04-16T20:23:40.493Z,9.90
2019-04-16T20:26:08.035Z,8.95
2019-04-16T20:28:35.402Z,7.75
2019-04-16T20:31:04.701Z,7.15
2019-04-16T20:33:32.296Z,6.75
2019-04-16T20:35:59.585Z,8.23
2019-04-16T20:38:29.283Z,7.78
2019-04-16T20:40:56.194Z,8.60
2019-04-16T20:43:23.621Z,7.58
2019-04-16T20:45:50.961Z,8.40
2019-04-16T20:48:18.322Z,8.18
2019-04-16T20:50:45.625Z,8.10
2019-04-16T20:53:13.239Z,8.90
2019-04-16T20:55:40.490Z,8.85
2019-04-16T20:58:07.876Z,8.95
2019-04-16T21:00:42.298Z,8.95
2019-04-16T21:03:21.087Z,9.35
2019-04-16T21:05:36.582Z,8.80
2019-04-16T21:08:04.583Z,8.78
2019-04-16T21:10:35.370Z,9.43
2019-04-16T21:13:01.495Z,7.97
2019-04-16T21:15:28.833Z,7.90
2019-04-16T21:17:56.366Z,8.03
2019-04-16T21:20:23.639Z,8.40
2019-04-16T21:22:51.692Z,8.15
2019-04-16T21:25:19.096Z,8.35
2019-04-16T21:28:02.003Z,8.60
2019-04-16T21:30:29.941Z,7.72
2019-04-16T21:33:13.665Z,7.12
2019-04-16T21:35:43.723Z,7.15
2019-04-16T21:38:21.099Z,8.18
2019-04-16T21:40:48.405Z,7.20
2019-04-16T21:43:15.776Z,7.62
2019-04-16T21:45:45.613Z,7.45
2019-04-16T21:48:12.662Z,7.95
2019-04-16T21:50:40.076Z,7.03
2019-04-16T21:53:07.743Z,7.80
2019-04-16T21:55:35.494Z,8.03
2019-04-16T21:58:04.448Z,7.35
2019-04-16T22:00:50.215Z,7.78
2019-04-16T22:03:18.480Z,8.48
2019-04-16T22:05:48.356Z,8.53
2019-04-16T22:08:14.888Z,9.10
2019-04-16T22:10:42.197Z,8.95
2019-04-16T22:13:09.443Z,8.70
2019-04-16T22:15:36.728Z,9.38
2019-04-16T22:18:07.539Z,9.15
2019-04-16T22:20:35.677Z,9.75
2019-04-16T22:23:02.205Z,9.45
2019-04-16T22:25:29.525Z,8.53
2019-04-16T22:27:56.765Z,9.33
2019-04-16T22:30:24.008Z,9.10
2019-04-16T22:32:51.285Z,9.13
2019-04-16T22:35:18.693Z,9.93
2019-04-16T22:37:45.944Z,10.18
2019-04-16T22:40:32.881Z,10.28
2019-04-16T22:43:25.150Z,10.63
2019-04-16T22:45:59.817Z,9.68
2019-04-16T22:48:27.115Z,10.53
2019-04-16T22:50:54.405Z,10.48
2019-04-16T22:53:21.734Z,9.65
2019-04-16T22:55:48.996Z,10.72
2019-04-16T22:58:23.277Z,10.80
2019-04-16T23:00:51.284Z,11.53
2019-04-16T23:03:19.528Z,11.73
2019-04-16T23:05:47.438Z,12.53
2019-04-16T23:08:14.711Z,10.03
2019-04-16T23:10:42.001Z,10.50
2019-04-16T23:13:09.236Z,11.30
2019-04-16T23:15:36.503Z,10.78
2019-04-16T23:18:04.091Z,11.25
2019-04-16T23:20:36.145Z,10.28
2019-04-16T23:23:00.614Z,10.25
2019-04-16T23:25:28.212Z,10.38
2019-04-16T23:27:55.587Z,10.55
2019-04-16T23:30:22.807Z,12.33
2019-04-16T23:32:50.191Z,11.97
2019-04-16T23:35:17.430Z,12.10
2019-04-16T23:37:44.779Z,13.10
2019-04-16T23:40:12.255Z,13.85
2019-04-16T23:42:50.427Z,14.25
2019-04-16T23:45:34.304Z,13.93
2019-04-16T23:48:18.859Z,13.48
2019-04-16T23:51:00.436Z,13.60
2019-04-16T23:53:46.045Z,13.20
2019-04-16T23:56:28.744Z,13.28
2019-04-16T23:59:05.554Z,13.75
